createdAt,value
2022-10-20T00:01:53.336Z,11.90
2022-10-20T00:04:21.001Z,11.89
2022-10-20T00:06:48.683Z,11.84
2022-10-20T00:09:17.765Z,11.88
2022-10-20T00:11:46.303Z,11.88
2022-10-20T00:14:13.994Z,11.87
2022-10-20T00:16:41.639Z,11.85
2022-10-20T00:19:09.400Z,11.87
2022-10-20T00:21:37.080Z,11.86
2022-10-20T00:24:05.317Z,11.82
2022-10-20T00:26:34.377Z,11.83
2022-10-20T00:29:03.348Z,11.82
2022-10-20T00:31:31.426Z,11.82
2022-10-20T00:33:59.328Z,11.82
2022-10-20T00:36:27.024Z,11.82
2022-10-20T00:38:58.739Z,11.80
2022-10-20T00:41:26.723Z,11.80
2022-10-20T00:43:57.835Z,11.75
2022-10-20T00:46:27.084Z,11.77
2022-10-20T00:48:57.936Z,11.78
2022-10-20T00:51:28.265Z,11.77
2022-10-20T00:53:59.766Z,11.75
2022-10-20T00:56:27.468Z,11.73
2022-10-20T00:58:56.615Z,11.73
2022-10-20T01:01:24.297Z,11.73
2022-10-20T01:03:52.614Z,11.71
2022-10-20T01:06:22.591Z,11.72
2022-10-20T01:08:50.788Z,11.72
2022-10-20T01:11:20.723Z,11.70
2022-10-20T01:13:58.747Z,11.67
2022-10-20T01:16:31.209Z,11.68
2022-10-20T01:19:06.438Z,11.68
2022-10-20T01:21:51.790Z,11.66
2022-10-20T01:24:33.823Z,11.65
2022-10-20T01:27:31.349Z,11.65
2022-10-20T01:30:06.082Z,11.63
2022-10-20T01:32:40.329Z,11.63
2022-10-20T01:35:13.019Z,11.59
2022-10-20T01:37:51.280Z,11.63
2022-10-20T01:40:25.279Z,11.61
2022-10-20T01:42:55.449Z,11.61
2022-10-20T01:45:25.290Z,11.59
2022-10-20T01:47:53.116Z,11.59
2022-10-20T01:50:21.553Z,11.57
2022-10-20T01:52:49.230Z,11.53
2022-10-20T01:55:19.220Z,11.52
2022-10-20T01:57:52.419Z,11.48
2022-10-20T02:00:21.862Z,11.47
2022-10-20T02:03:03.199Z,11.47
2022-10-20T02:05:41.958Z,11.39
2022-10-20T02:08:14.022Z,11.36
2022-10-20T02:10:46.735Z,11.43
2022-10-20T02:13:15.077Z,11.41
2022-10-20T02:15:47.046Z,11.38
2022-10-20T02:18:18.651Z,11.40
2022-10-20T02:20:51.406Z,11.39
2022-10-20T02:23:19.658Z,11.38
2022-10-20T02:25:49.001Z,11.35
2022-10-20T02:28:16.967Z,11.33
2022-10-20T02:30:46.671Z,11.31
2022-10-20T02:33:14.730Z,11.27
2022-10-20T02:35:44.745Z,11.27
2022-10-20T02:38:12.360Z,11.29
2022-10-20T02:40:39.996Z,11.27
2022-10-20T02:43:07.651Z,11.27
2022-10-20T02:45:35.399Z,11.31
2022-10-20T02:48:06.352Z,11.29
2022-10-20T02:50:36.146Z,11.29
2022-10-20T02:53:04.447Z,11.27
2022-10-20T02:55:32.337Z,11.26
2022-10-20T02:57:59.967Z,11.28
2022-10-20T03:00:30.879Z,11.27
2022-10-20T03:02:58.575Z,11.27
2022-10-20T03:05:28.112Z,11.27
2022-10-20T03:07:55.828Z,11.24
2022-10-20T03:10:23.633Z,11.23
2022-10-20T03:12:51.223Z,11.19
2022-10-20T03:15:19.119Z,11.12
2022-10-20T03:17:46.689Z,11.21
2022-10-20T03:20:14.360Z,11.18
2022-10-20T03:22:43.428Z,11.18
2022-10-20T03:25:11.081Z,11.19
2022-10-20T03:27:38.929Z,11.18
2022-10-20T03:30:07.625Z,11.20
2022-10-20T03:32:35.579Z,11.17
2022-10-20T03:35:03.626Z,11.18
2022-10-20T03:37:31.256Z,11.18
2022-10-20T03:40:00.260Z,11.18
2022-10-20T03:42:27.866Z,11.14
2022-10-20T03:44:55.476Z,11.19
2022-10-20T03:47:23.316Z,11.19
2022-10-20T03:49:51.008Z,11.16
2022-10-20T03:52:18.618Z,11.13
2022-10-20T03:54:46.226Z,11.10
2022-10-20T03:57:15.321Z,11.17
2022-10-20T03:59:43.231Z,11.19
2022-10-20T04:02:24.968Z,11.17
2022-10-20T04:04:52.920Z,11.17
2022-10-20T04:07:20.529Z,11.16
2022-10-20T04:09:48.148Z,11.16
2022-10-20T04:12:17.257Z,11.15
2022-10-20T04:14:44.901Z,11.14
2022-10-20T04:17:12.610Z,11.10
2022-10-20T04:19:40.374Z,11.12
2022-10-20T04:22:07.969Z,11.12
2022-10-20T04:24:35.602Z,11.14
2022-10-20T04:27:03.347Z,11.11
2022-10-20T04:29:32.661Z,11.10
2022-10-20T04:32:00.345Z,11.08
2022-10-20T04:34:28.062Z,11.11
2022-10-20T04:36:55.713Z,11.12
2022-10-20T04:39:23.606Z,11.11
2022-10-20T04:41:51.209Z,11.10
2022-10-20T04:44:18.934Z,11.11
2022-10-20T04:46:48.147Z,11.05
2022-10-20T04:49:15.847Z,11.12
2022-10-20T04:51:43.539Z,11.08
2022-10-20T04:54:11.237Z,11.10
2022-10-20T04:56:39.157Z,11.09
2022-10-20T04:59:09.645Z,11.09
2022-10-20T05:01:40.494Z,11.09
2022-10-20T05:04:10.296Z,11.08
2022-10-20T05:06:38.357Z,11.06
2022-10-20T05:09:07.755Z,11.06
2022-10-20T05:11:36.935Z,11.03
2022-10-20T05:14:04.598Z,11.02
2022-10-20T05:16:32.739Z,11.01
2022-10-20T05:19:00.402Z,10.97
2022-10-20T05:21:30.859Z,10.98
2022-10-20T05:23:59.739Z,10.95
2022-10-20T05:26:28.350Z,10.97
2022-10-20T05:28:56.398Z,10.96
2022-10-20T05:31:25.042Z,10.95
2022-10-20T05:33:55.378Z,10.93
2022-10-20T05:36:24.730Z,10.95
2022-10-20T05:38:55.230Z,10.96
2022-10-20T05:41:24.408Z,10.96
2022-10-20T05:43:53.276Z,10.95
2022-10-20T05:46:21.727Z,10.96
2022-10-20T05:48:49.368Z,10.95
2022-10-20T05:51:20.850Z,10.95
2022-10-20T05:53:48.582Z,10.93
2022-10-20T05:56:19.725Z,10.94
2022-10-20T05:58:48.342Z,10.96
2022-10-20T06:01:19.137Z,10.97
2022-10-20T06:03:49.259Z,10.99
2022-10-20T06:06:17.187Z,10.99
2022-10-20T06:08:45.003Z,10.99
2022-10-20T06:11:13.546Z,11.01
2022-10-20T06:13:43.668Z,11.00
2022-10-20T06:16:15.334Z,11.01
2022-10-20T06:18:43.940Z,11.03
2022-10-20T06:21:13.982Z,11.06
2022-10-20T06:23:41.650Z,11.07
2022-10-20T06:26:11.359Z,11.07
2022-10-20T06:28:40.472Z,11.04
2022-10-20T06:31:13.810Z,11.02
2022-10-20T06:33:41.676Z,11.02
2022-10-20T06:36:09.584Z,11.05
2022-10-20T06:38:38.183Z,11.06
2022-10-20T06:41:07.867Z,11.08
2022-10-20T06:43:35.518Z,11.11
2022-10-20T06:46:04.838Z,11.11
2022-10-20T06:48:34.222Z,11.13
2022-10-20T06:51:06.778Z,11.11
2022-10-20T06:53:36.224Z,11.18
2022-10-20T06:56:06.382Z,11.19
2022-10-20T06:58:34.685Z,11.18
2022-10-20T07:01:05.661Z,11.24
2022-10-20T07:03:38.912Z,11.24
2022-10-20T07:06:08.161Z,11.26
2022-10-20T07:08:37.352Z,11.27
2022-10-20T07:11:07.164Z,11.27
2022-10-20T07:13:35.605Z,11.29
2022-10-20T07:16:04.065Z,11.31
2022-10-20T07:18:32.270Z,11.32
2022-10-20T07:21:03.001Z,11.35
2022-10-20T07:23:31.996Z,11.36
2022-10-20T07:26:03.120Z,11.35
2022-10-20T07:28:30.799Z,11.34
2022-10-20T07:30:58.862Z,11.37
2022-10-20T07:33:26.585Z,11.38
2022-10-20T07:35:54.198Z,11.41
2022-10-20T07:38:23.244Z,11.41
2022-10-20T07:40:50.853Z,11.41
2022-10-20T07:43:18.593Z,11.43
2022-10-20T07:45:46.376Z,11.43
2022-10-20T07:48:14.286Z,11.43
2022-10-20T07:50:42.013Z,11.43
2022-10-20T07:53:09.644Z,11.45
2022-10-20T07:55:39.389Z,11.43
2022-10-20T07:58:07.286Z,11.45
2022-10-20T08:00:35.002Z,11.48
2022-10-20T08:03:02.931Z,11.51
2022-10-20T08:05:30.664Z,11.53
2022-10-20T08:07:59.206Z,11.55
2022-10-20T08:10:26.855Z,11.55
2022-10-20T08:12:55.914Z,11.62
2022-10-20T08:15:23.578Z,11.66
2022-10-20T08:17:51.376Z,11.65
2022-10-20T08:20:24.890Z,11.73
2022-10-20T08:22:54.825Z,11.76
2022-10-20T08:25:22.637Z,11.83
2022-10-20T08:27:50.272Z,11.87
2022-10-20T08:30:23.990Z,11.91
2022-10-20T08:32:52.543Z,11.98
2022-10-20T08:35:20.423Z,12.01
2022-10-20T08:37:48.371Z,12.04
2022-10-20T08:40:17.786Z,12.07
2022-10-20T08:42:46.211Z,12.10
2022-10-20T08:45:16.149Z,12.13
2022-10-20T08:47:46.073Z,12.17
2022-10-20T08:50:16.928Z,12.21
2022-10-20T08:52:45.493Z,12.25
2022-10-20T08:57:58.304Z,12.27
2022-10-20T09:00:27.913Z,12.27
2022-10-20T09:02:56.944Z,12.31
2022-10-20T09:05:27.020Z,12.33
2022-10-20T09:07:55.022Z,12.38
2022-10-20T09:10:31.426Z,12.43
2022-10-20T09:12:59.527Z,12.49
2022-10-20T09:15:27.497Z,12.56
2022-10-20T09:18:00.614Z,12.57
2022-10-20T09:20:31.034Z,12.64
2022-10-20T09:23:01.405Z,12.62
2022-10-20T09:25:32.300Z,12.83
2022-10-20T09:27:59.920Z,12.92
2022-10-20T09:30:35.346Z,13.01
2022-10-20T09:33:21.524Z,13.11
2022-10-20T09:35:49.830Z,13.18
2022-10-20T09:38:19.336Z,13.24
2022-10-20T09:40:54.917Z,13.29
2022-10-20T09:43:22.581Z,13.30
2022-10-20T09:45:53.687Z,13.29
2022-10-20T09:48:25.480Z,13.32
2022-10-20T09:50:55.297Z,13.38
2022-10-20T09:53:26.058Z,13.42
2022-10-20T09:55:53.957Z,13.48
2022-10-20T09:58:24.294Z,13.56
2022-10-20T10:01:00.515Z,13.64
2022-10-20T10:03:29.846Z,13.75
2022-10-20T10:05:58.671Z,13.84
2022-10-20T10:08:29.643Z,13.94
2022-10-20T10:11:05.002Z,13.99
2022-10-20T10:13:38.837Z,14.01
2022-10-20T10:16:08.015Z,13.98
2022-10-20T10:18:37.790Z,13.97
2022-10-20T10:21:07.618Z,13.97
2022-10-20T10:23:40.911Z,13.93
2022-10-20T10:26:42.088Z,13.88
2022-10-20T10:29:18.017Z,13.88
2022-10-20T10:31:50.733Z,13.86
2022-10-20T10:34:39.122Z,13.83
2022-10-20T10:37:07.049Z,13.81
2022-10-20T10:39:36.978Z,13.82
2022-10-20T10:42:24.904Z,13.82
2022-10-20T10:44:57.684Z,13.76
2022-10-20T10:47:37.839Z,13.75
2022-10-20T10:50:36.821Z,13.74
2022-10-20T10:53:20.363Z,13.74
2022-10-20T10:55:52.277Z,13.74
2022-10-20T10:58:28.843Z,13.68
2022-10-20T11:01:03.830Z,13.71
2022-10-20T11:03:46.745Z,13.73
2022-10-20T11:06:22.573Z,13.75
2022-10-20T11:09:03.719Z,13.75
2022-10-20T11:11:42.407Z,13.78
2022-10-20T11:14:21.433Z,13.74
2022-10-20T11:16:55.346Z,13.82
2022-10-20T11:19:35.922Z,13.82
2022-10-20T11:22:14.287Z,13.85
2022-10-20T11:24:52.337Z,13.85
2022-10-20T11:27:22.413Z,13.78
2022-10-20T11:29:52.682Z,13.85
2022-10-20T11:32:27.642Z,13.85
2022-10-20T11:35:02.829Z,13.86
2022-10-20T11:37:33.813Z,13.86
2022-10-20T11:40:08.664Z,13.83
2022-10-20T11:42:40.761Z,13.88
2022-10-20T11:45:24.269Z,13.89
2022-10-20T11:47:54.864Z,13.89
2022-10-20T11:50:22.836Z,13.89
2022-10-20T11:53:07.087Z,13.87
2022-10-20T11:56:07.725Z,13.91
2022-10-20T11:59:02.568Z,13.95
2022-10-20T12:01:34.684Z,13.96
2022-10-20T12:04:33.891Z,13.99
2022-10-20T12:07:18.808Z,14.00
2022-10-20T12:10:16.472Z,14.02
2022-10-20T12:12:52.328Z,13.99
2022-10-20T12:15:22.754Z,14.05
2022-10-20T12:17:51.283Z,14.05
2022-10-20T12:20:52.204Z,14.06
2022-10-20T12:23:54.951Z,14.07
2022-10-20T12:26:42.407Z,14.05
2022-10-20T12:29:49.197Z,14.06
2022-10-20T12:32:57.630Z,14.05
2022-10-20T12:35:47.297Z,14.04
2022-10-20T12:38:17.831Z,14.07
2022-10-20T12:40:50.090Z,14.07
2022-10-20T12:43:28.007Z,14.07
2022-10-20T12:45:59.476Z,14.08
2022-10-20T12:48:27.362Z,14.08
2022-10-20T12:51:04.047Z,14.12
2022-10-20T12:53:32.116Z,14.12
2022-10-20T12:56:01.493Z,14.14
2022-10-20T12:58:33.223Z,14.11
2022-10-20T13:01:04.966Z,14.15
2022-10-20T13:03:43.050Z,14.15
2022-10-20T13:06:41.783Z,14.14
2022-10-20T13:09:21.108Z,14.15
2022-10-20T13:12:04.087Z,14.12
2022-10-20T13:14:37.084Z,14.08
2022-10-20T13:17:17.784Z,14.13
2022-10-20T13:19:47.682Z,14.10
2022-10-20T13:22:39.013Z,14.08
2022-10-20T13:25:14.701Z,14.06
2022-10-20T13:27:42.486Z,14.05
2022-10-20T13:30:15.473Z,14.05
2022-10-20T13:33:10.829Z,14.04
2022-10-20T13:35:41.775Z,13.97
2022-10-20T13:38:14.323Z,14.00
2022-10-20T13:40:47.106Z,14.05
2022-10-20T13:43:26.866Z,14.07
2022-10-20T13:46:18.752Z,14.09
2022-10-20T13:48:56.924Z,14.01
2022-10-20T13:51:26.839Z,14.10
2022-10-20T13:53:56.942Z,14.10
2022-10-20T13:56:35.669Z,14.11
2022-10-20T13:59:06.294Z,14.15
2022-10-20T14:01:37.043Z,14.15
2022-10-20T14:04:20.882Z,14.16
2022-10-20T14:06:48.638Z,14.18
2022-10-20T14:09:18.458Z,14.21
2022-10-20T14:11:47.058Z,14.19
2022-10-20T14:14:16.930Z,14.22
2022-10-20T14:16:54.629Z,14.28
2022-10-20T14:19:27.612Z,14.33
2022-10-20T14:21:56.281Z,14.34
2022-10-20T14:24:30.028Z,14.33
2022-10-20T14:29:30.550Z,14.35
2022-10-20T14:31:59.972Z,14.37
2022-10-20T14:34:30.220Z,14.37
2022-10-20T14:36:58.566Z,14.39
2022-10-20T14:39:33.611Z,14.38
2022-10-20T14:42:02.205Z,14.40
2022-10-20T14:44:31.665Z,14.41
2022-10-20T14:47:05.285Z,14.43
2022-10-20T14:49:35.370Z,14.43
2022-10-20T14:52:03.876Z,14.50
2022-10-20T14:54:37.337Z,14.53
2022-10-20T14:57:43.874Z,14.57
2022-10-20T15:00:30.806Z,14.62
2022-10-20T15:03:02.966Z,14.65
2022-10-20T15:05:40.580Z,14.65
2022-10-20T15:08:10.979Z,14.71
2022-10-20T15:10:39.438Z,14.73
2022-10-20T15:13:07.514Z,14.72
2022-10-20T15:15:39.601Z,14.61
2022-10-20T15:18:16.118Z,14.69
2022-10-20T15:20:44.620Z,14.68
2022-10-20T15:23:14.124Z,14.69
2022-10-20T15:25:50.627Z,14.68
2022-10-20T15:28:26.301Z,14.72
2022-10-20T15:30:54.484Z,14.73
2022-10-20T15:33:23.578Z,14.73
2022-10-20T15:35:52.950Z,14.74
2022-10-20T15:38:21.120Z,14.79
2022-10-20T15:40:48.971Z,14.80
2022-10-20T15:43:18.320Z,14.82
2022-10-20T15:45:49.147Z,14.85
2022-10-20T15:48:17.267Z,14.88
2022-10-20T15:50:46.600Z,14.92
2022-10-20T15:53:14.256Z,14.89
2022-10-20T15:55:43.742Z,14.91
2022-10-20T15:58:11.339Z,14.91
2022-10-20T16:00:39.420Z,14.90
2022-10-20T16:03:07.196Z,14.88
2022-10-20T16:05:35.262Z,14.92
2022-10-20T16:08:04.413Z,14.89
2022-10-20T16:10:32.055Z,14.89
2022-10-20T16:12:59.649Z,14.91
2022-10-20T16:15:30.417Z,14.90
2022-10-20T16:17:58.787Z,14.89
2022-10-20T16:20:26.434Z,14.89
2022-10-20T16:22:54.174Z,14.89
2022-10-20T16:25:23.281Z,14.87
2022-10-20T16:27:50.933Z,14.87
2022-10-20T16:30:18.807Z,14.86
2022-10-20T16:32:46.522Z,14.86
2022-10-20T16:35:14.158Z,14.85
2022-10-20T16:37:41.845Z,14.85
2022-10-20T16:40:10.553Z,14.85
2022-10-20T16:42:39.567Z,14.85
2022-10-20T16:45:08.243Z,14.84
2022-10-20T16:47:37.433Z,14.83
2022-10-20T16:50:06.140Z,14.81
2022-10-20T16:52:33.826Z,14.83
2022-10-20T16:55:01.483Z,14.83
2022-10-20T16:57:29.762Z,14.79
2022-10-20T17:00:00.394Z,14.82
2022-10-20T17:02:28.071Z,14.79
2022-10-20T17:04:55.727Z,14.79
2022-10-20T17:07:23.401Z,14.79
2022-10-20T17:09:51.044Z,14.75
2022-10-20T17:12:18.688Z,14.74
2022-10-20T17:14:46.293Z,14.74
2022-10-20T17:17:15.339Z,14.73
2022-10-20T17:19:43.300Z,14.70
2022-10-20T17:24:43.982Z,14.68
2022-10-20T17:27:12.817Z,14.66
2022-10-20T17:29:40.399Z,14.64
2022-10-20T17:32:08.002Z,14.61
2022-10-20T17:34:37.076Z,14.63
2022-10-20T17:37:04.700Z,14.61
2022-10-20T17:39:32.353Z,14.60
2022-10-20T17:41:59.993Z,14.61
2022-10-20T17:44:27.627Z,14.59
2022-10-20T17:46:55.230Z,14.58
2022-10-20T17:49:22.876Z,14.59
2022-10-20T17:51:51.890Z,14.59
2022-10-20T17:54:20.279Z,14.58
2022-10-20T17:56:50.369Z,14.57
2022-10-20T17:59:17.981Z,14.58
2022-10-20T18:01:45.731Z,14.57
2022-10-20T18:04:14.900Z,14.58
2022-10-20T18:06:43.112Z,14.58
2022-10-20T18:09:13.896Z,14.52
2022-10-20T18:11:44.350Z,14.57
2022-10-20T18:14:12.035Z,14.60
2022-10-20T18:16:40.826Z,14.55
2022-10-20T18:19:09.123Z,14.60
2022-10-20T18:21:36.769Z,14.60
2022-10-20T18:24:06.265Z,14.62
2022-10-20T18:26:37.348Z,14.60
2022-10-20T18:29:06.501Z,14.60
2022-10-20T18:31:35.406Z,14.53
2022-10-20T18:34:06.899Z,14.57
2022-10-20T18:36:37.009Z,14.62
2022-10-20T18:39:07.498Z,14.61
2022-10-20T18:41:38.629Z,14.60
2022-10-20T18:44:09.319Z,14.59
2022-10-20T18:46:37.329Z,14.60
2022-10-20T18:49:06.995Z,14.60
2022-10-20T18:51:35.914Z,14.59
2022-10-20T18:54:04.144Z,14.58
2022-10-20T18:56:32.186Z,14.57
2022-10-20T18:59:02.745Z,14.57
2022-10-20T19:01:32.117Z,14.56
2022-10-20T19:04:00.944Z,14.55
2022-10-20T19:06:30.315Z,14.55
2022-10-20T19:08:59.687Z,14.56
2022-10-20T19:11:29.436Z,14.52
2022-10-20T19:13:57.577Z,14.54
2022-10-20T19:16:29.201Z,14.54
2022-10-20T19:18:58.506Z,14.53
2022-10-20T19:21:26.841Z,14.54
2022-10-20T19:23:57.800Z,14.53
2022-10-20T19:26:27.107Z,14.52
2022-10-20T19:28:58.757Z,14.52
2022-10-20T19:31:30.854Z,14.52
2022-10-20T19:34:00.355Z,14.50
2022-10-20T19:36:28.863Z,14.51
2022-10-20T19:38:56.736Z,14.50
2022-10-20T19:41:24.394Z,14.51
2022-10-20T19:43:52.027Z,14.50
2022-10-20T19:46:21.983Z,14.52
2022-10-20T19:48:51.592Z,14.52
2022-10-20T19:51:21.187Z,14.52
2022-10-20T19:53:49.527Z,14.52
2022-10-20T19:56:18.786Z,14.51
2022-10-20T19:58:48.315Z,14.51
2022-10-20T20:01:16.885Z,14.54
2022-10-20T20:03:44.993Z,14.53
2022-10-20T20:06:16.553Z,14.54
2022-10-20T20:08:45.337Z,14.53
2022-10-20T20:11:22.763Z,14.55
2022-10-20T20:13:50.965Z,14.55
2022-10-20T20:16:18.684Z,14.56
2022-10-20T20:18:46.380Z,14.55
2022-10-20T20:21:16.170Z,14.57
2022-10-20T20:24:00.193Z,14.57
2022-10-20T20:26:28.838Z,14.57
2022-10-20T20:28:56.762Z,14.58
2022-10-20T20:31:24.792Z,14.58
2022-10-20T20:33:53.423Z,14.57
2022-10-20T20:36:22.516Z,14.48
2022-10-20T20:38:52.605Z,14.57
2022-10-20T20:41:24.536Z,14.57
2022-10-20T20:43:52.221Z,14.57
2022-10-20T20:46:22.331Z,14.55
2022-10-20T20:48:50.197Z,14.53
2022-10-20T20:51:18.082Z,14.56
2022-10-20T20:53:47.307Z,14.56
2022-10-20T20:56:17.089Z,14.57
2022-10-20T20:58:47.527Z,14.56
2022-10-20T21:01:16.826Z,14.55
2022-10-20T21:03:44.480Z,14.55
2022-10-20T21:06:13.793Z,14.53
2022-10-20T21:08:42.915Z,14.53
2022-10-20T21:11:13.605Z,14.50
2022-10-20T21:13:42.719Z,14.44
2022-10-20T21:16:12.741Z,14.52
2022-10-20T21:18:41.062Z,14.52
2022-10-20T21:23:44.814Z,14.52
2022-10-20T21:26:15.840Z,14.48
2022-10-20T21:28:44.315Z,14.51
2022-10-20T21:31:13.795Z,14.46
2022-10-20T21:33:42.184Z,14.50
2022-10-20T21:36:12.354Z,14.48
2022-10-20T21:38:40.958Z,14.51
2022-10-20T21:41:09.928Z,14.50
2022-10-20T21:43:40.336Z,14.51
2022-10-20T21:46:12.847Z,14.51
2022-10-20T21:48:40.746Z,14.50
2022-10-20T21:51:10.197Z,14.49
2022-10-20T21:53:37.834Z,14.51
2022-10-20T21:56:06.042Z,14.49
2022-10-20T21:58:33.836Z,14.49
2022-10-20T22:01:09.847Z,14.49
2022-10-20T22:03:37.500Z,14.46
2022-10-20T22:06:05.492Z,14.45
2022-10-20T22:08:35.228Z,14.44
2022-10-20T22:11:04.463Z,14.44
2022-10-20T22:13:32.545Z,14.43
2022-10-20T22:16:00.274Z,14.42
2022-10-20T22:18:29.397Z,14.39
2022-10-20T22:20:57.016Z,14.40
2022-10-20T22:23:24.679Z,14.39
2022-10-20T22:25:53.711Z,14.39
2022-10-20T22:28:21.366Z,14.38
2022-10-20T22:30:49.007Z,14.37
2022-10-20T22:33:16.695Z,14.37
2022-10-20T22:35:45.870Z,14.38
2022-10-20T22:38:13.883Z,14.38
2022-10-20T22:40:41.653Z,14.37
2022-10-20T22:43:09.276Z,14.38
2022-10-20T22:45:36.932Z,14.37
2022-10-20T22:48:04.871Z,14.36
2022-10-20T22:50:32.854Z,14.36
2022-10-20T22:53:01.874Z,14.36
2022-10-20T22:55:29.516Z,14.35
2022-10-20T23:00:29.853Z,14.34
2022-10-20T23:02:57.550Z,14.35
2022-10-20T23:05:25.200Z,14.33
2022-10-20T23:07:52.859Z,14.36
2022-10-20T23:10:21.938Z,14.34
2022-10-20T23:12:49.592Z,14.34
2022-10-20T23:15:17.411Z,14.34
2022-10-20T23:17:45.771Z,14.34
2022-10-20T23:20:13.523Z,14.34
2022-10-20T23:22:41.213Z,14.32
2022-10-20T23:25:09.532Z,14.32
2022-10-20T23:27:39.310Z,14.31
2022-10-20T23:30:08.264Z,14.34
2022-10-20T23:32:35.876Z,14.33
2022-10-20T23:35:03.512Z,14.32
2022-10-20T23:37:31.148Z,14.32
2022-10-20T23:39:58.739Z,14.33
2022-10-20T23:42:26.329Z,14.33
2022-10-20T23:44:55.351Z,14.34
2022-10-20T23:47:22.931Z,14.34
2022-10-20T23:49:50.585Z,14.33
2022-10-20T23:52:18.262Z,14.35
2022-10-20T23:54:45.872Z,14.35
2022-10-20T23:57:13.514Z,14.37
2022-10-20T23:59:41.176Z,14.38
